Mcmasterville, Canada
Current Conditions -  °F | °C
As of 11:00 PM on Wednesday 22 Oct 2014 (Local Time) from CYHU Reporting Station
Broken Clouds Broken Clouds  
Wind Chill: 36°   Ceiling: 8300
Heat Index: 43°   Visibility: 9mi
Dew Point: 34°   Wind: 13mph
Humidity: 70%   Direction: 30°NNE
Pressure: 30.21"   Gusts: 20mph
Location:  45.55°N, 73.23°W
Report Text: CYHU 230300Z AUTO 03011G17KT 9SM FEW060 BKN083 06/01 A3021 RMK SLP232
Loading
Personal Weather Stations






























Interactive Weather Map
Tropical Storm Tracking
New forecast layout! Learn more

10-Day Weather Forecast

Advertisements
Track Severe Weather on mobile